sensor_id;sensor_type;location;lat;lon;timestamp;P1;durP1;ratioP1;P2;durP2;ratioP2
33327;SDS011;19692;52.998;9.116;2024-03-02T00:00:51;20.53;;;15.60;;
33327;SDS011;19692;52.998;9.116;2024-03-02T00:03:17;20.20;;;16.03;;
33327;SDS011;19692;52.998;9.116;2024-03-02T00:05:44;20.17;;;15.70;;
33327;SDS011;19692;52.998;9.116;2024-03-02T00:08:14;18.63;;;15.87;;
33327;SDS011;19692;52.998;9.116;2024-03-02T00:10:51;20.50;;;15.03;;
33327;SDS011;19692;52.998;9.116;2024-03-02T00:13:18;18.47;;;15.90;;
33327;SDS011;19692;52.998;9.116;2024-03-02T00:18:31;19.33;;;14.90;;
33327;SDS011;19692;52.998;9.116;2024-03-02T00:20:59;19.33;;;15.97;;
33327;SDS011;19692;52.998;9.116;2024-03-02T00:23:32;18.67;;;15.33;;
33327;SDS011;19692;52.998;9.116;2024-03-02T00:26:00;20.00;;;15.40;;
33327;SDS011;19692;52.998;9.116;2024-03-02T00:33:34;20.03;;;15.77;;
33327;SDS011;19692;52.998;9.116;2024-03-02T00:36:22;22.20;;;16.13;;
33327;SDS011;19692;52.998;9.116;2024-03-02T00:38:51;18.70;;;15.23;;
33327;SDS011;19692;52.998;9.116;2024-03-02T00:41:21;19.60;;;15.90;;
33327;SDS011;19692;52.998;9.116;2024-03-02T00:46:33;20.30;;;16.83;;
33327;SDS011;19692;52.998;9.116;2024-03-02T00:49:12;18.87;;;15.83;;
33327;SDS011;19692;52.998;9.116;2024-03-02T00:51:47;19.03;;;15.93;;
33327;SDS011;19692;52.998;9.116;2024-03-02T00:54:15;20.13;;;16.17;;
33327;SDS011;19692;52.998;9.116;2024-03-02T00:56:49;19.37;;;16.27;;
33327;SDS011;19692;52.998;9.116;2024-03-02T00:59:15;19.13;;;17.07;;
33327;SDS011;19692;52.998;9.116;2024-03-02T01:01:41;17.97;;;15.27;;
33327;SDS011;19692;52.998;9.116;2024-03-02T01:04:07;19.97;;;16.33;;
33327;SDS011;19692;52.998;9.116;2024-03-02T01:06:37;18.97;;;15.60;;
33327;SDS011;19692;52.998;9.116;2024-03-02T01:09:03;19.47;;;15.70;;
33327;SDS011;19692;52.998;9.116;2024-03-02T01:11:29;22.10;;;16.97;;
33327;SDS011;19692;52.998;9.116;2024-03-02T01:13:55;19.53;;;16.20;;
33327;SDS011;19692;52.998;9.116;2024-03-02T01:16:21;20.30;;;16.10;;
33327;SDS011;19692;52.998;9.116;2024-03-02T01:18:46;21.83;;;16.07;;
33327;SDS011;19692;52.998;9.116;2024-03-02T01:21:12;22.17;;;16.53;;
33327;SDS011;19692;52.998;9.116;2024-03-02T01:23:38;20.07;;;15.97;;
33327;SDS011;19692;52.998;9.116;2024-03-02T01:26:04;21.73;;;17.03;;
33327;SDS011;19692;52.998;9.116;2024-03-02T01:28:30;18.77;;;15.93;;
33327;SDS011;19692;52.998;9.116;2024-03-02T01:30:56;21.60;;;17.40;;
33327;SDS011;19692;52.998;9.116;2024-03-02T01:33:22;21.13;;;16.83;;
33327;SDS011;19692;52.998;9.116;2024-03-02T01:35:48;20.30;;;16.70;;
33327;SDS011;19692;52.998;9.116;2024-03-02T01:38:13;18.40;;;15.73;;
33327;SDS011;19692;52.998;9.116;2024-03-02T01:40:39;21.17;;;16.67;;
33327;SDS011;19692;52.998;9.116;2024-03-02T01:43:05;19.93;;;16.87;;
33327;SDS011;19692;52.998;9.116;2024-03-02T01:45:32;20.03;;;16.83;;
33327;SDS011;19692;52.998;9.116;2024-03-02T01:47:58;18.77;;;15.67;;
33327;SDS011;19692;52.998;9.116;2024-03-02T01:50:25;18.97;;;16.37;;
33327;SDS011;19692;52.998;9.116;2024-03-02T01:52:57;18.57;;;16.00;;
33327;SDS011;19692;52.998;9.116;2024-03-02T01:55:24;19.40;;;16.27;;
33327;SDS011;19692;52.998;9.116;2024-03-02T01:57:50;19.40;;;16.37;;
33327;SDS011;19692;52.998;9.116;2024-03-02T02:00:17;19.00;;;15.97;;
33327;SDS011;19692;52.998;9.116;2024-03-02T02:02:44;19.73;;;16.90;;
33327;SDS011;19692;52.998;9.116;2024-03-02T02:05:11;18.47;;;15.77;;
33327;SDS011;19692;52.998;9.116;2024-03-02T02:07:38;21.30;;;16.37;;
33327;SDS011;19692;52.998;9.116;2024-03-02T02:10:04;21.60;;;16.70;;
33327;SDS011;19692;52.998;9.116;2024-03-02T02:12:30;20.63;;;15.90;;
33327;SDS011;19692;52.998;9.116;2024-03-02T02:14:55;19.37;;;16.40;;
33327;SDS011;19692;52.998;9.116;2024-03-02T02:17:21;20.23;;;16.87;;
33327;SDS011;19692;52.998;9.116;2024-03-02T02:19:47;20.53;;;16.30;;
33327;SDS011;19692;52.998;9.116;2024-03-02T02:22:13;18.90;;;15.63;;
33327;SDS011;19692;52.998;9.116;2024-03-02T02:24:39;18.23;;;15.57;;
33327;SDS011;19692;52.998;9.116;2024-03-02T02:27:09;18.67;;;16.33;;
33327;SDS011;19692;52.998;9.116;2024-03-02T02:29:35;21.63;;;16.40;;
33327;SDS011;19692;52.998;9.116;2024-03-02T02:32:02;21.73;;;16.77;;
33327;SDS011;19692;52.998;9.116;2024-03-02T02:34:28;19.23;;;16.43;;
33327;SDS011;19692;52.998;9.116;2024-03-02T02:36:53;22.63;;;17.00;;
33327;SDS011;19692;52.998;9.116;2024-03-02T02:39:20;19.63;;;15.90;;
33327;SDS011;19692;52.998;9.116;2024-03-02T02:41:50;19.63;;;16.13;;
33327;SDS011;19692;52.998;9.116;2024-03-02T02:44:15;20.20;;;16.20;;
33327;SDS011;19692;52.998;9.116;2024-03-02T02:46:41;20.07;;;16.10;;
33327;SDS011;19692;52.998;9.116;2024-03-02T02:49:07;18.67;;;15.97;;
33327;SDS011;19692;52.998;9.116;2024-03-02T02:51:33;18.17;;;15.53;;
33327;SDS011;19692;52.998;9.116;2024-03-02T02:53:59;21.30;;;16.77;;
33327;SDS011;19692;52.998;9.116;2024-03-02T02:56:25;17.70;;;15.57;;
33327;SDS011;19692;52.998;9.116;2024-03-02T02:58:51;18.67;;;15.57;;
33327;SDS011;19692;52.998;9.116;2024-03-02T03:01:17;17.67;;;14.70;;
33327;SDS011;19692;52.998;9.116;2024-03-02T03:03:43;19.63;;;15.97;;
33327;SDS011;19692;52.998;9.116;2024-03-02T03:06:09;21.77;;;15.60;;
33327;SDS011;19692;52.998;9.116;2024-03-02T03:08:35;19.00;;;15.10;;
33327;SDS011;19692;52.998;9.116;2024-03-02T03:11:01;19.00;;;15.47;;
33327;SDS011;19692;52.998;9.116;2024-03-02T03:13:28;17.30;;;15.33;;
33327;SDS011;19692;52.998;9.116;2024-03-02T03:15:54;18.23;;;15.90;;
33327;SDS011;19692;52.998;9.116;2024-03-02T03:18:20;17.53;;;14.67;;
33327;SDS011;19692;52.998;9.116;2024-03-02T03:20:45;17.43;;;15.37;;
33327;SDS011;19692;52.998;9.116;2024-03-02T03:23:11;18.60;;;14.93;;
33327;SDS011;19692;52.998;9.116;2024-03-02T03:25:40;17.50;;;15.67;;
33327;SDS011;19692;52.998;9.116;2024-03-02T03:28:07;17.67;;;15.63;;
33327;SDS011;19692;52.998;9.116;2024-03-02T03:30:35;17.10;;;14.47;;
33327;SDS011;19692;52.998;9.116;2024-03-02T03:33:04;19.13;;;14.90;;
33327;SDS011;19692;52.998;9.116;2024-03-02T03:35:33;16.70;;;14.47;;
33327;SDS011;19692;52.998;9.116;2024-03-02T03:37:59;16.07;;;14.10;;
33327;SDS011;19692;52.998;9.116;2024-03-02T03:40:25;15.93;;;14.23;;
33327;SDS011;19692;52.998;9.116;2024-03-02T03:42:51;16.37;;;13.67;;
33327;SDS011;19692;52.998;9.116;2024-03-02T03:45:17;18.73;;;14.37;;
33327;SDS011;19692;52.998;9.116;2024-03-02T03:47:43;18.20;;;14.47;;
33327;SDS011;19692;52.998;9.116;2024-03-02T03:50:08;17.27;;;14.70;;
33327;SDS011;19692;52.998;9.116;2024-03-02T03:52:34;16.50;;;13.27;;
33327;SDS011;19692;52.998;9.116;2024-03-02T03:55:00;15.87;;;13.83;;
33327;SDS011;19692;52.998;9.116;2024-03-02T03:57:26;17.07;;;13.57;;
33327;SDS011;19692;52.998;9.116;2024-03-02T03:59:52;17.73;;;14.50;;
33327;SDS011;19692;52.998;9.116;2024-03-02T04:02:18;15.83;;;12.77;;
33327;SDS011;19692;52.998;9.116;2024-03-02T04:04:44;15.67;;;13.30;;
33327;SDS011;19692;52.998;9.116;2024-03-02T04:07:10;15.27;;;13.17;;
33327;SDS011;19692;52.998;9.116;2024-03-02T04:09:36;19.60;;;13.50;;
33327;SDS011;19692;52.998;9.116;2024-03-02T04:12:02;16.67;;;14.07;;
33327;SDS011;19692;52.998;9.116;2024-03-02T04:14:28;14.73;;;13.13;;
33327;SDS011;19692;52.998;9.116;2024-03-02T04:16:54;14.83;;;13.20;;
33327;SDS011;19692;52.998;9.116;2024-03-02T04:19:20;15.30;;;13.37;;
33327;SDS011;19692;52.998;9.116;2024-03-02T04:21:46;14.67;;;13.07;;
33327;SDS011;19692;52.998;9.116;2024-03-02T04:24:12;15.00;;;13.43;;
33327;SDS011;19692;52.998;9.116;2024-03-02T04:26:37;15.17;;;13.57;;
33327;SDS011;19692;52.998;9.116;2024-03-02T04:29:03;15.13;;;13.30;;
33327;SDS011;19692;52.998;9.116;2024-03-02T04:31:29;17.27;;;13.83;;
33327;SDS011;19692;52.998;9.116;2024-03-02T04:33:55;15.97;;;13.60;;
33327;SDS011;19692;52.998;9.116;2024-03-02T04:36:20;15.60;;;13.13;;
33327;SDS011;19692;52.998;9.116;2024-03-02T04:38:46;17.63;;;14.10;;
33327;SDS011;19692;52.998;9.116;2024-03-02T04:41:13;17.97;;;14.83;;
33327;SDS011;19692;52.998;9.116;2024-03-02T04:43:39;16.43;;;13.23;;
33327;SDS011;19692;52.998;9.116;2024-03-02T04:46:05;16.20;;;13.83;;
33327;SDS011;19692;52.998;9.116;2024-03-02T04:48:32;16.13;;;14.37;;
33327;SDS011;19692;52.998;9.116;2024-03-02T04:50:58;17.33;;;13.83;;
33327;SDS011;19692;52.998;9.116;2024-03-02T04:53:23;17.87;;;14.97;;
33327;SDS011;19692;52.998;9.116;2024-03-02T04:55:50;16.80;;;14.60;;
33327;SDS011;19692;52.998;9.116;2024-03-02T04:58:34;17.17;;;14.87;;
33327;SDS011;19692;52.998;9.116;2024-03-02T05:01:00;18.10;;;14.53;;
33327;SDS011;19692;52.998;9.116;2024-03-02T05:03:26;18.37;;;15.07;;
33327;SDS011;19692;52.998;9.116;2024-03-02T05:05:51;18.03;;;15.50;;
33327;SDS011;19692;52.998;9.116;2024-03-02T05:08:17;18.60;;;14.73;;
33327;SDS011;19692;52.998;9.116;2024-03-02T05:10:43;17.60;;;15.47;;
33327;SDS011;19692;52.998;9.116;2024-03-02T05:13:08;17.43;;;14.97;;
33327;SDS011;19692;52.998;9.116;2024-03-02T05:15:34;18.37;;;14.67;;
33327;SDS011;19692;52.998;9.116;2024-03-02T05:18:00;19.33;;;16.10;;
33327;SDS011;19692;52.998;9.116;2024-03-02T05:20:27;17.63;;;15.33;;
33327;SDS011;19692;52.998;9.116;2024-03-02T05:22:53;17.67;;;15.77;;
33327;SDS011;19692;52.998;9.116;2024-03-02T05:25:19;19.00;;;15.90;;
33327;SDS011;19692;52.998;9.116;2024-03-02T05:27:45;19.37;;;15.60;;
33327;SDS011;19692;52.998;9.116;2024-03-02T05:30:11;21.03;;;17.13;;
33327;SDS011;19692;52.998;9.116;2024-03-02T05:32:37;22.83;;;17.00;;
33327;SDS011;19692;52.998;9.116;2024-03-02T05:35:03;24.20;;;18.30;;
33327;SDS011;19692;52.998;9.116;2024-03-02T05:37:30;19.40;;;16.53;;
33327;SDS011;19692;52.998;9.116;2024-03-02T05:39:55;22.77;;;17.97;;
33327;SDS011;19692;52.998;9.116;2024-03-02T05:42:21;23.33;;;17.40;;
33327;SDS011;19692;52.998;9.116;2024-03-02T05:44:47;23.07;;;18.37;;
33327;SDS011;19692;52.998;9.116;2024-03-02T05:47:13;22.17;;;18.07;;
33327;SDS011;19692;52.998;9.116;2024-03-02T05:49:38;25.87;;;18.00;;
33327;SDS011;19692;52.998;9.116;2024-03-02T05:52:04;24.40;;;19.17;;
33327;SDS011;19692;52.998;9.116;2024-03-02T05:54:30;22.07;;;18.40;;
33327;SDS011;19692;52.998;9.116;2024-03-02T05:56:56;23.40;;;19.40;;
33327;SDS011;19692;52.998;9.116;2024-03-02T05:59:21;25.10;;;19.60;;
33327;SDS011;19692;52.998;9.116;2024-03-02T06:01:47;27.50;;;19.17;;
33327;SDS011;19692;52.998;9.116;2024-03-02T06:04:15;27.63;;;19.10;;
33327;SDS011;19692;52.998;9.116;2024-03-02T06:06:41;23.43;;;19.30;;
33327;SDS011;19692;52.998;9.116;2024-03-02T06:09:08;26.93;;;19.23;;
33327;SDS011;19692;52.998;9.116;2024-03-02T06:11:37;25.97;;;20.73;;
33327;SDS011;19692;52.998;9.116;2024-03-02T06:14:05;26.40;;;19.87;;
33327;SDS011;19692;52.998;9.116;2024-03-02T06:16:32;26.50;;;20.50;;
33327;SDS011;19692;52.998;9.116;2024-03-02T06:18:59;27.63;;;20.47;;
33327;SDS011;19692;52.998;9.116;2024-03-02T06:21:26;23.77;;;19.23;;
33327;SDS011;19692;52.998;9.116;2024-03-02T06:23:52;27.47;;;21.73;;
33327;SDS011;19692;52.998;9.116;2024-03-02T06:26:18;27.77;;;21.57;;
33327;SDS011;19692;52.998;9.116;2024-03-02T06:28:45;29.13;;;21.17;;
33327;SDS011;19692;52.998;9.116;2024-03-02T06:31:11;30.30;;;22.23;;
33327;SDS011;19692;52.998;9.116;2024-03-02T06:33:37;27.40;;;21.43;;
33327;SDS011;19692;52.998;9.116;2024-03-02T06:36:03;25.43;;;20.43;;
33327;SDS011;19692;52.998;9.116;2024-03-02T06:38:29;27.27;;;21.40;;
33327;SDS011;19692;52.998;9.116;2024-03-02T06:40:57;27.80;;;21.43;;
33327;SDS011;19692;52.998;9.116;2024-03-02T06:43:23;26.70;;;20.97;;
33327;SDS011;19692;52.998;9.116;2024-03-02T06:45:49;26.33;;;21.17;;
33327;SDS011;19692;52.998;9.116;2024-03-02T06:48:16;25.93;;;19.87;;
33327;SDS011;19692;52.998;9.116;2024-03-02T06:50:45;27.23;;;21.03;;
33327;SDS011;19692;52.998;9.116;2024-03-02T06:53:12;27.73;;;20.43;;
33327;SDS011;19692;52.998;9.116;2024-03-02T06:55:39;25.20;;;20.20;;
33327;SDS011;19692;52.998;9.116;2024-03-02T06:58:04;25.07;;;19.80;;
33327;SDS011;19692;52.998;9.116;2024-03-02T07:00:31;27.47;;;20.73;;
33327;SDS011;19692;52.998;9.116;2024-03-02T07:02:56;28.50;;;21.83;;
33327;SDS011;19692;52.998;9.116;2024-03-02T07:05:23;27.93;;;20.23;;
33327;SDS011;19692;52.998;9.116;2024-03-02T07:07:49;25.63;;;19.57;;
33327;SDS011;19692;52.998;9.116;2024-03-02T07:10:14;26.40;;;19.93;;
33327;SDS011;19692;52.998;9.116;2024-03-02T07:12:40;25.57;;;19.70;;
33327;SDS011;19692;52.998;9.116;2024-03-02T07:15:06;27.40;;;20.37;;
33327;SDS011;19692;52.998;9.116;2024-03-02T07:17:32;28.47;;;21.10;;
33327;SDS011;19692;52.998;9.116;2024-03-02T07:19:58;27.43;;;20.80;;
33327;SDS011;19692;52.998;9.116;2024-03-02T07:22:24;26.77;;;20.80;;
33327;SDS011;19692;52.998;9.116;2024-03-02T07:24:50;25.30;;;20.10;;
33327;SDS011;19692;52.998;9.116;2024-03-02T07:27:16;25.10;;;20.07;;
33327;SDS011;19692;52.998;9.116;2024-03-02T07:29:43;26.57;;;19.90;;
33327;SDS011;19692;52.998;9.116;2024-03-02T07:32:09;30.00;;;21.43;;
33327;SDS011;19692;52.998;9.116;2024-03-02T07:34:35;26.73;;;21.10;;
33327;SDS011;19692;52.998;9.116;2024-03-02T07:37:05;25.83;;;20.50;;
33327;SDS011;19692;52.998;9.116;2024-03-02T07:39:31;27.53;;;20.63;;
33327;SDS011;19692;52.998;9.116;2024-03-02T07:41:56;26.03;;;20.77;;
33327;SDS011;19692;52.998;9.116;2024-03-02T07:44:23;24.83;;;19.53;;
33327;SDS011;19692;52.998;9.116;2024-03-02T07:46:49;26.30;;;21.50;;
33327;SDS011;19692;52.998;9.116;2024-03-02T07:49:15;26.47;;;19.57;;
33327;SDS011;19692;52.998;9.116;2024-03-02T07:51:41;25.40;;;19.63;;
33327;SDS011;19692;52.998;9.116;2024-03-02T07:54:08;25.60;;;21.40;;
33327;SDS011;19692;52.998;9.116;2024-03-02T07:56:34;24.23;;;19.63;;
33327;SDS011;19692;52.998;9.116;2024-03-02T07:59:00;26.50;;;19.13;;
33327;SDS011;19692;52.998;9.116;2024-03-02T08:01:30;26.10;;;19.80;;
33327;SDS011;19692;52.998;9.116;2024-03-02T08:03:57;23.93;;;18.67;;
33327;SDS011;19692;52.998;9.116;2024-03-02T08:06:25;27.23;;;19.63;;
33327;SDS011;19692;52.998;9.116;2024-03-02T08:08:58;26.43;;;19.50;;
33327;SDS011;19692;52.998;9.116;2024-03-02T08:11:25;24.53;;;19.77;;
33327;SDS011;19692;52.998;9.116;2024-03-02T08:13:56;24.33;;;18.83;;
33327;SDS011;19692;52.998;9.116;2024-03-02T08:16:25;23.37;;;18.57;;
33327;SDS011;19692;52.998;9.116;2024-03-02T08:18:51;27.23;;;18.53;;
33327;SDS011;19692;52.998;9.116;2024-03-02T08:21:17;23.77;;;18.93;;
33327;SDS011;19692;52.998;9.116;2024-03-02T08:23:43;23.87;;;19.23;;
33327;SDS011;19692;52.998;9.116;2024-03-02T08:26:09;25.20;;;19.03;;
33327;SDS011;19692;52.998;9.116;2024-03-02T08:28:35;25.27;;;19.17;;
33327;SDS011;19692;52.998;9.116;2024-03-02T08:31:07;23.53;;;18.73;;
33327;SDS011;19692;52.998;9.116;2024-03-02T08:33:34;23.60;;;19.27;;
33327;SDS011;19692;52.998;9.116;2024-03-02T08:36:00;24.40;;;18.97;;
33327;SDS011;19692;52.998;9.116;2024-03-02T08:38:26;26.70;;;19.63;;
33327;SDS011;19692;52.998;9.116;2024-03-02T08:40:52;23.60;;;18.60;;
33327;SDS011;19692;52.998;9.116;2024-03-02T08:43:18;27.23;;;20.27;;
33327;SDS011;19692;52.998;9.116;2024-03-02T08:45:45;24.63;;;19.33;;
33327;SDS011;19692;52.998;9.116;2024-03-02T08:48:12;23.37;;;19.27;;
33327;SDS011;19692;52.998;9.116;2024-03-02T08:50:38;25.03;;;19.03;;
33327;SDS011;19692;52.998;9.116;2024-03-02T08:53:04;25.93;;;19.60;;
33327;SDS011;19692;52.998;9.116;2024-03-02T08:55:29;24.30;;;18.67;;
33327;SDS011;19692;52.998;9.116;2024-03-02T08:57:55;21.93;;;18.17;;
33327;SDS011;19692;52.998;9.116;2024-03-02T09:00:21;24.23;;;19.07;;
33327;SDS011;19692;52.998;9.116;2024-03-02T09:02:48;24.53;;;19.30;;
33327;SDS011;19692;52.998;9.116;2024-03-02T09:05:14;24.97;;;19.47;;
33327;SDS011;19692;52.998;9.116;2024-03-02T09:07:40;24.47;;;19.23;;
33327;SDS011;19692;52.998;9.116;2024-03-02T09:10:06;27.27;;;19.83;;
33327;SDS011;19692;52.998;9.116;2024-03-02T09:12:33;24.13;;;18.90;;
33327;SDS011;19692;52.998;9.116;2024-03-02T09:15:02;24.77;;;20.03;;
33327;SDS011;19692;52.998;9.116;2024-03-02T09:17:29;24.13;;;17.80;;
33327;SDS011;19692;52.998;9.116;2024-03-02T09:19:55;23.43;;;18.97;;
33327;SDS011;19692;52.998;9.116;2024-03-02T09:22:21;26.87;;;18.53;;
33327;SDS011;19692;52.998;9.116;2024-03-02T09:24:48;25.73;;;19.03;;
33327;SDS011;19692;52.998;9.116;2024-03-02T09:27:14;24.07;;;18.43;;
33327;SDS011;19692;52.998;9.116;2024-03-02T09:29:40;23.07;;;18.17;;
33327;SDS011;19692;52.998;9.116;2024-03-02T09:32:06;24.60;;;18.77;;
33327;SDS011;19692;52.998;9.116;2024-03-02T09:34:32;22.90;;;18.77;;
33327;SDS011;19692;52.998;9.116;2024-03-02T09:36:59;23.67;;;18.47;;
33327;SDS011;19692;52.998;9.116;2024-03-02T09:39:24;24.53;;;18.83;;
33327;SDS011;19692;52.998;9.116;2024-03-02T09:41:50;23.83;;;18.53;;
33327;SDS011;19692;52.998;9.116;2024-03-02T09:44:17;23.67;;;18.43;;
33327;SDS011;19692;52.998;9.116;2024-03-02T09:46:42;24.47;;;18.27;;
33327;SDS011;19692;52.998;9.116;2024-03-02T09:49:09;24.23;;;18.13;;
33327;SDS011;19692;52.998;9.116;2024-03-02T09:51:36;22.43;;;17.70;;
33327;SDS011;19692;52.998;9.116;2024-03-02T09:54:02;22.13;;;17.77;;
33327;SDS011;19692;52.998;9.116;2024-03-02T09:56:29;20.60;;;16.93;;
33327;SDS011;19692;52.998;9.116;2024-03-02T09:58:54;21.57;;;16.57;;
33327;SDS011;19692;52.998;9.116;2024-03-02T10:01:20;20.83;;;17.10;;
33327;SDS011;19692;52.998;9.116;2024-03-02T10:03:47;23.53;;;17.17;;
33327;SDS011;19692;52.998;9.116;2024-03-02T10:06:20;22.50;;;17.43;;
33327;SDS011;19692;52.998;9.116;2024-03-02T10:08:47;21.23;;;16.73;;
33327;SDS011;19692;52.998;9.116;2024-03-02T10:11:26;21.10;;;16.77;;
33327;SDS011;19692;52.998;9.116;2024-03-02T10:14:04;22.67;;;16.70;;
33327;SDS011;19692;52.998;9.116;2024-03-02T10:16:36;20.27;;;15.97;;
33327;SDS011;19692;52.998;9.116;2024-03-02T10:19:19;21.13;;;15.33;;
33327;SDS011;19692;52.998;9.116;2024-03-02T10:21:48;19.50;;;14.80;;
33327;SDS011;19692;52.998;9.116;2024-03-02T10:24:16;18.20;;;14.70;;
33327;SDS011;19692;52.998;9.116;2024-03-02T10:26:46;18.33;;;14.57;;
33327;SDS011;19692;52.998;9.116;2024-03-02T10:29:13;17.17;;;15.03;;
33327;SDS011;19692;52.998;9.116;2024-03-02T10:31:39;16.13;;;13.87;;
33327;SDS011;19692;52.998;9.116;2024-03-02T10:34:07;17.83;;;14.83;;
33327;SDS011;19692;52.998;9.116;2024-03-02T10:36:35;17.33;;;14.10;;
33327;SDS011;19692;52.998;9.116;2024-03-02T10:39:03;18.30;;;13.93;;
33327;SDS011;19692;52.998;9.116;2024-03-02T10:41:36;16.47;;;13.23;;
33327;SDS011;19692;52.998;9.116;2024-03-02T10:44:04;15.73;;;12.70;;
33327;SDS011;19692;52.998;9.116;2024-03-02T10:46:32;16.93;;;13.53;;
33327;SDS011;19692;52.998;9.116;2024-03-02T10:49:01;15.77;;;12.70;;
33327;SDS011;19692;52.998;9.116;2024-03-02T10:51:29;16.03;;;12.50;;
33327;SDS011;19692;52.998;9.116;2024-03-02T10:53:57;15.53;;;11.63;;
33327;SDS011;19692;52.998;9.116;2024-03-02T10:56:30;16.43;;;12.47;;
33327;SDS011;19692;52.998;9.116;2024-03-02T11:01:58;14.03;;;11.57;;
33327;SDS011;19692;52.998;9.116;2024-03-02T11:04:26;14.07;;;11.20;;
33327;SDS011;19692;52.998;9.116;2024-03-02T11:09:36;16.00;;;10.47;;
33327;SDS011;19692;52.998;9.116;2024-03-02T11:12:09;11.37;;;10.03;;
33327;SDS011;19692;52.998;9.116;2024-03-02T11:14:43;12.40;;;10.43;;
33327;SDS011;19692;52.998;9.116;2024-03-02T11:17:08;13.57;;;10.30;;
33327;SDS011;19692;52.998;9.116;2024-03-02T11:19:36;12.57;;;10.00;;
33327;SDS011;19692;52.998;9.116;2024-03-02T11:22:04;12.30;;;9.33;;
33327;SDS011;19692;52.998;9.116;2024-03-02T11:24:31;10.77;;;9.67;;
33327;SDS011;19692;52.998;9.116;2024-03-02T11:26:58;11.30;;;9.63;;
33327;SDS011;19692;52.998;9.116;2024-03-02T11:34:34;10.63;;;9.20;;
33327;SDS011;19692;52.998;9.116;2024-03-02T11:37:01;9.67;;;8.20;;
33327;SDS011;19692;52.998;9.116;2024-03-02T11:39:28;10.63;;;8.57;;
33327;SDS011;19692;52.998;9.116;2024-03-02T11:41:55;9.43;;;8.40;;
33327;SDS011;19692;52.998;9.116;2024-03-02T11:44:22;10.23;;;8.93;;
33327;SDS011;19692;52.998;9.116;2024-03-02T11:47:02;10.17;;;8.07;;
33327;SDS011;19692;52.998;9.116;2024-03-02T11:49:54;11.13;;;8.00;;
33327;SDS011;19692;52.998;9.116;2024-03-02T11:52:19;8.40;;;7.20;;
33327;SDS011;19692;52.998;9.116;2024-03-02T11:54:47;9.30;;;7.33;;
33327;SDS011;19692;52.998;9.116;2024-03-02T11:57:16;9.10;;;7.07;;
33327;SDS011;19692;52.998;9.116;2024-03-02T11:59:44;8.43;;;7.10;;
33327;SDS011;19692;52.998;9.116;2024-03-02T12:02:17;8.40;;;7.10;;
33327;SDS011;19692;52.998;9.116;2024-03-02T12:04:45;7.17;;;6.47;;
33327;SDS011;19692;52.998;9.116;2024-03-02T12:07:17;9.27;;;7.03;;
33327;SDS011;19692;52.998;9.116;2024-03-02T12:09:46;7.90;;;6.70;;
33327;SDS011;19692;52.998;9.116;2024-03-02T12:12:12;7.43;;;6.30;;
33327;SDS011;19692;52.998;9.116;2024-03-02T12:14:49;8.10;;;6.30;;
33327;SDS011;19692;52.998;9.116;2024-03-02T12:17:20;7.67;;;6.47;;
33327;SDS011;19692;52.998;9.116;2024-03-02T12:19:46;7.27;;;6.43;;
33327;SDS011;19692;52.998;9.116;2024-03-02T12:22:13;7.20;;;6.50;;
33327;SDS011;19692;52.998;9.116;2024-03-02T12:24:40;8.20;;;6.93;;
33327;SDS011;19692;52.998;9.116;2024-03-02T12:27:07;9.47;;;6.50;;
33327;SDS011;19692;52.998;9.116;2024-03-02T12:29:33;7.30;;;6.00;;
33327;SDS011;19692;52.998;9.116;2024-03-02T12:31:59;7.60;;;5.87;;
33327;SDS011;19692;52.998;9.116;2024-03-02T12:34:27;6.57;;;5.83;;
33327;SDS011;19692;52.998;9.116;2024-03-02T12:36:53;7.67;;;5.63;;
33327;SDS011;19692;52.998;9.116;2024-03-02T12:39:19;6.13;;;5.07;;
33327;SDS011;19692;52.998;9.116;2024-03-02T12:41:51;6.53;;;5.80;;
33327;SDS011;19692;52.998;9.116;2024-03-02T12:44:19;7.23;;;6.53;;
33327;SDS011;19692;52.998;9.116;2024-03-02T12:46:45;7.13;;;6.43;;
33327;SDS011;19692;52.998;9.116;2024-03-02T12:49:13;7.03;;;6.30;;
33327;SDS011;19692;52.998;9.116;2024-03-02T12:51:45;8.33;;;7.13;;
33327;SDS011;19692;52.998;9.116;2024-03-02T12:54:16;7.70;;;6.90;;
33327;SDS011;19692;52.998;9.116;2024-03-02T12:56:42;7.60;;;6.80;;
33327;SDS011;19692;52.998;9.116;2024-03-02T12:59:18;7.93;;;7.13;;
33327;SDS011;19692;52.998;9.116;2024-03-02T13:01:50;9.43;;;7.97;;
33327;SDS011;19692;52.998;9.116;2024-03-02T13:04:22;8.93;;;7.30;;
33327;SDS011;19692;52.998;9.116;2024-03-02T13:06:54;7.80;;;7.00;;
33327;SDS011;19692;52.998;9.116;2024-03-02T13:09:22;10.73;;;7.57;;
33327;SDS011;19692;52.998;9.116;2024-03-02T13:11:48;8.50;;;7.03;;
33327;SDS011;19692;52.998;9.116;2024-03-02T13:14:14;7.37;;;6.23;;
33327;SDS011;19692;52.998;9.116;2024-03-02T13:16:44;7.40;;;6.67;;
33327;SDS011;19692;52.998;9.116;2024-03-02T13:19:13;7.77;;;6.97;;
33327;SDS011;19692;52.998;9.116;2024-03-02T13:21:39;9.23;;;6.00;;
33327;SDS011;19692;52.998;9.116;2024-03-02T13:24:05;7.30;;;6.07;;
33327;SDS011;19692;52.998;9.116;2024-03-02T13:26:31;6.50;;;5.27;;
33327;SDS011;19692;52.998;9.116;2024-03-02T13:28:57;6.03;;;5.43;;
33327;SDS011;19692;52.998;9.116;2024-03-02T13:31:23;7.37;;;5.93;;
33327;SDS011;19692;52.998;9.116;2024-03-02T13:33:48;6.73;;;6.13;;
33327;SDS011;19692;52.998;9.116;2024-03-02T13:36:14;6.77;;;6.07;;
33327;SDS011;19692;52.998;9.116;2024-03-02T13:38:40;6.97;;;6.00;;
33327;SDS011;19692;52.998;9.116;2024-03-02T13:41:05;7.33;;;6.60;;
33327;SDS011;19692;52.998;9.116;2024-03-02T13:43:31;6.90;;;6.20;;
33327;SDS011;19692;52.998;9.116;2024-03-02T13:45:58;6.80;;;6.10;;
33327;SDS011;19692;52.998;9.116;2024-03-02T13:48:24;6.70;;;6.00;;
33327;SDS011;19692;52.998;9.116;2024-03-02T13:50:52;7.03;;;6.10;;
33327;SDS011;19692;52.998;9.116;2024-03-02T13:53:18;8.10;;;6.30;;
33327;SDS011;19692;52.998;9.116;2024-03-02T13:55:44;6.97;;;6.27;;
33327;SDS011;19692;52.998;9.116;2024-03-02T13:58:10;7.50;;;6.17;;
33327;SDS011;19692;52.998;9.116;2024-03-02T14:00:37;7.80;;;6.77;;
33327;SDS011;19692;52.998;9.116;2024-03-02T14:03:04;7.20;;;6.20;;
33327;SDS011;19692;52.998;9.116;2024-03-02T14:05:31;7.30;;;6.47;;
33327;SDS011;19692;52.998;9.116;2024-03-02T14:07:57;7.70;;;6.50;;
33327;SDS011;19692;52.998;9.116;2024-03-02T14:10:25;7.00;;;6.30;;
33327;SDS011;19692;52.998;9.116;2024-03-02T14:12:52;8.00;;;6.50;;
33327;SDS011;19692;52.998;9.116;2024-03-02T14:15:19;8.03;;;6.93;;
33327;SDS011;19692;52.998;9.116;2024-03-02T14:17:44;7.30;;;6.60;;
33327;SDS011;19692;52.998;9.116;2024-03-02T14:20:10;7.57;;;6.87;;
33327;SDS011;19692;52.998;9.116;2024-03-02T14:22:38;7.43;;;6.67;;
33327;SDS011;19692;52.998;9.116;2024-03-02T14:25:04;9.37;;;7.57;;
33327;SDS011;19692;52.998;9.116;2024-03-02T14:27:31;9.93;;;7.23;;
33327;SDS011;19692;52.998;9.116;2024-03-02T14:29:57;8.40;;;6.93;;
33327;SDS011;19692;52.998;9.116;2024-03-02T14:32:23;7.23;;;6.40;;
33327;SDS011;19692;52.998;9.116;2024-03-02T14:34:49;9.47;;;7.30;;
33327;SDS011;19692;52.998;9.116;2024-03-02T14:37:15;9.00;;;6.60;;
33327;SDS011;19692;52.998;9.116;2024-03-02T14:39:41;8.47;;;6.73;;
33327;SDS011;19692;52.998;9.116;2024-03-02T14:42:07;8.10;;;6.80;;
33327;SDS011;19692;52.998;9.116;2024-03-02T14:44:33;8.17;;;7.23;;
33327;SDS011;19692;52.998;9.116;2024-03-02T14:46:59;9.27;;;7.23;;
33327;SDS011;19692;52.998;9.116;2024-03-02T14:49:28;7.90;;;7.10;;